createdAt,value
2018-01-03T00:02:00.188Z,3.80
2018-01-03T00:04:29.200Z,3.70
2018-01-03T00:06:58.952Z,3.80
2018-01-03T00:09:27.926Z,3.70
2018-01-03T00:11:57.048Z,3.80
2018-01-03T00:14:26.024Z,3.80
2018-01-03T00:16:54.995Z,3.80
2018-01-03T00:19:24.744Z,3.80
2018-01-03T00:21:53.696Z,3.80
2018-01-03T00:24:23.424Z,3.80
2018-01-03T00:26:52.420Z,3.80
2018-01-03T00:29:21.426Z,3.80
2018-01-03T00:31:50.395Z,3.80
2018-01-03T00:34:19.377Z,3.90
2018-01-03T00:36:49.161Z,3.90
2018-01-03T00:39:18.212Z,3.80
2018-01-03T00:41:47.257Z,3.80
2018-01-03T00:44:16.225Z,3.80
2018-01-03T00:46:45.184Z,3.80
2018-01-03T00:49:14.197Z,3.80
2018-01-03T00:51:43.171Z,3.70
2018-01-03T00:54:12.212Z,3.80
2018-01-03T00:56:41.207Z,3.80
2018-01-03T00:59:10.229Z,3.80
2018-01-03T01:01:40.039Z,3.80
2018-01-03T01:04:09.829Z,3.80
2018-01-03T01:06:38.827Z,3.70
2018-01-03T01:09:07.850Z,3.80
2018-01-03T01:11:36.855Z,3.80
2018-01-03T01:14:05.894Z,3.80
2018-01-03T01:16:35.091Z,3.90
2018-01-03T01:19:04.777Z,3.90
2018-01-03T01:21:33.761Z,4.00
2018-01-03T01:24:02.792Z,4.00
2018-01-03T01:26:31.751Z,3.90
2018-01-03T01:29:00.892Z,4.00
2018-01-03T01:31:30.648Z,4.00
2018-01-03T01:33:59.647Z,4.00
2018-01-03T01:36:28.680Z,4.00
2018-01-03T01:38:57.931Z,4.00
2018-01-03T01:41:26.915Z,4.00
2018-01-03T01:43:55.908Z,4.10
2018-01-03T01:46:24.844Z,4.10
2018-01-03T01:49:02.596Z,4.10
2018-01-03T01:51:31.575Z,4.10
2018-01-03T01:54:00.580Z,4.10
2018-01-03T01:56:29.601Z,4.10
2018-01-03T01:58:58.584Z,4.10
2018-01-03T02:01:27.606Z,4.20
2018-01-03T02:03:56.559Z,4.10
2018-01-03T02:06:25.609Z,4.20
2018-01-03T02:08:54.582Z,4.20
2018-01-03T02:11:23.583Z,4.30
2018-01-03T02:13:52.575Z,4.30
2018-01-03T02:17:25.492Z,4.30
2018-01-03T02:19:55.228Z,4.30
2018-01-03T02:22:24.182Z,4.20
2018-01-03T02:24:53.937Z,4.30
2018-01-03T02:27:22.980Z,4.30
2018-01-03T02:29:51.992Z,4.30
2018-01-03T02:32:21.777Z,4.50
2018-01-03T02:34:50.817Z,4.40
2018-01-03T02:37:19.834Z,4.50
2018-01-03T02:39:48.821Z,4.50
2018-01-03T02:42:17.824Z,4.50
2018-01-03T02:44:46.803Z,4.50
2018-01-03T02:47:15.790Z,4.50
2018-01-03T02:49:44.786Z,4.50
2018-01-03T02:52:13.748Z,4.50
2018-01-03T02:54:43.489Z,4.60
2018-01-03T02:57:13.037Z,4.60
2018-01-03T02:59:42.032Z,4.60
2018-01-03T03:02:10.984Z,4.60
2018-01-03T03:04:39.999Z,4.60
2018-01-03T03:07:08.976Z,4.60
2018-01-03T03:09:37.980Z,4.60
2018-01-03T03:12:06.933Z,4.60
2018-01-03T03:14:35.872Z,4.60
2018-01-03T03:17:04.826Z,4.70
2018-01-03T03:19:33.785Z,4.60
2018-01-03T03:22:03.571Z,4.60
2018-01-03T03:24:32.545Z,4.60
2018-01-03T03:27:01.530Z,4.60
2018-01-03T03:29:30.564Z,4.60
2018-01-03T03:31:59.910Z,4.60
2018-01-03T03:34:28.922Z,4.70
2018-01-03T03:36:57.958Z,4.80
2018-01-03T03:39:27.832Z,4.80
2018-01-03T03:41:56.816Z,4.70
2018-01-03T03:44:25.772Z,4.80
2018-01-03T03:46:55.547Z,4.90
2018-01-03T03:49:24.693Z,4.90
2018-01-03T03:51:53.884Z,4.90
2018-01-03T03:54:22.892Z,5.00
2018-01-03T03:56:52.103Z,5.00
2018-01-03T03:59:22.007Z,5.10
2018-01-03T04:01:51.408Z,5.00
2018-01-03T04:04:20.344Z,5.10
2018-01-03T04:11:39.616Z,5.20
2018-01-03T04:14:08.581Z,5.30
2018-01-03T04:16:37.541Z,5.40
2018-01-03T04:19:07.288Z,5.50
2018-01-03T04:21:36.275Z,5.40
2018-01-03T04:24:05.208Z,5.50
2018-01-03T04:26:34.151Z,5.50
2018-01-03T04:29:03.196Z,5.60
2018-01-03T04:31:32.917Z,5.70
2018-01-03T04:34:01.902Z,5.60
2018-01-03T04:36:30.896Z,5.60
2018-01-03T04:38:59.899Z,5.60
2018-01-03T04:41:28.868Z,5.70
2018-01-03T04:43:57.806Z,5.70
2018-01-03T04:46:28.701Z,5.70
2018-01-03T04:48:57.668Z,5.70
2018-01-03T04:51:26.612Z,5.80
2018-01-03T04:53:55.694Z,5.80
2018-01-03T04:56:24.719Z,5.80
2018-01-03T04:58:54.440Z,5.90
2018-01-03T05:01:23.684Z,5.90
2018-01-03T05:03:53.023Z,6.00
2018-01-03T05:06:22.807Z,6.00
2018-01-03T05:08:51.758Z,6.00
2018-01-03T05:11:20.760Z,6.00
2018-01-03T05:13:49.715Z,6.10
2018-01-03T05:16:19.438Z,6.10
2018-01-03T05:18:49.172Z,6.20
2018-01-03T05:21:18.140Z,6.10
2018-01-03T05:23:47.089Z,6.10
2018-01-03T05:26:16.069Z,6.00
2018-01-03T05:28:45.068Z,6.00
2018-01-03T05:31:14.062Z,6.00
2018-01-03T05:33:43.094Z,6.10
2018-01-03T05:36:12.085Z,6.10
2018-01-03T05:38:41.877Z,6.10
2018-01-03T05:41:11.640Z,6.10
2018-01-03T05:43:40.710Z,6.00
2018-01-03T05:46:09.700Z,6.10
2018-01-03T05:48:38.689Z,6.20
2018-01-03T05:51:07.746Z,6.20
2018-01-03T05:53:36.736Z,6.30
2018-01-03T05:56:05.746Z,6.30
2018-01-03T05:59:05.243Z,6.40
2018-01-03T06:01:34.359Z,6.40
2018-01-03T06:04:04.562Z,6.50
2018-01-03T06:06:34.596Z,6.50
2018-01-03T06:09:05.059Z,6.60
2018-01-03T06:11:34.027Z,6.50
2018-01-03T06:14:03.850Z,6.50
2018-01-03T06:16:32.907Z,6.50
2018-01-03T06:19:01.928Z,6.50
2018-01-03T06:21:31.706Z,6.40
2018-01-03T06:24:00.648Z,6.40
2018-01-03T06:26:29.626Z,6.20
2018-01-03T06:28:58.593Z,6.10
2018-01-03T06:31:27.717Z,6.00
2018-01-03T06:33:56.941Z,5.90
2018-01-03T06:36:25.873Z,5.80
2018-01-03T06:38:54.849Z,5.70
2018-01-03T06:41:23.907Z,5.60
2018-01-03T06:43:52.911Z,5.50
2018-01-03T06:46:21.940Z,5.50
2018-01-03T06:48:51.659Z,5.40
2018-01-03T06:51:24.658Z,5.40
2018-01-03T06:53:54.462Z,5.30
2018-01-03T06:56:24.274Z,5.40
2018-01-03T06:58:54.058Z,5.40
2018-01-03T07:01:23.088Z,5.30
2018-01-03T07:03:53.113Z,5.30
2018-01-03T07:09:54.934Z,5.20
2018-01-03T07:12:23.947Z,5.20
2018-01-03T07:14:52.963Z,5.20
2018-01-03T07:17:21.975Z,5.30
2018-01-03T07:19:51.739Z,5.40
2018-01-03T07:22:20.748Z,5.40
2018-01-03T07:24:49.791Z,5.40
2018-01-03T07:27:18.736Z,5.50
2018-01-03T07:29:47.698Z,5.60
2018-01-03T07:32:16.719Z,5.60
2018-01-03T07:34:45.700Z,5.70
2018-01-03T07:37:14.884Z,5.70
2018-01-03T07:39:43.955Z,5.60
2018-01-03T07:42:13.036Z,5.60
2018-01-03T07:44:42.075Z,5.60
2018-01-03T07:47:11.873Z,5.70
2018-01-03T07:49:40.888Z,5.60
2018-01-03T07:52:09.879Z,5.70
2018-01-03T07:54:38.906Z,5.70
2018-01-03T07:57:08.749Z,5.80
2018-01-03T07:59:37.837Z,5.80
2018-01-03T08:02:10.274Z,5.80
2018-01-03T08:04:39.317Z,5.80
2018-01-03T08:07:09.090Z,6.00
2018-01-03T08:09:38.834Z,6.00
2018-01-03T08:12:07.868Z,6.00
2018-01-03T08:14:36.880Z,6.10
2018-01-03T08:17:05.857Z,6.20
2018-01-03T08:19:34.901Z,6.30
2018-01-03T08:22:03.965Z,6.30
2018-01-03T08:24:33.758Z,6.30
2018-01-03T08:27:02.745Z,6.30
2018-01-03T08:29:31.731Z,6.40
2018-01-03T08:32:00.796Z,6.40
2018-01-03T08:34:29.850Z,6.30
2018-01-03T08:36:59.634Z,6.50
2018-01-03T08:39:29.407Z,6.50
2018-01-03T08:41:58.406Z,6.40
2018-01-03T08:44:28.142Z,6.40
2018-01-03T08:47:27.764Z,6.30
2018-01-03T08:49:56.919Z,6.30
2018-01-03T08:52:26.782Z,6.30
2018-01-03T08:54:55.780Z,6.20
2018-01-03T08:57:24.745Z,6.20
2018-01-03T08:59:54.527Z,6.40
2018-01-03T09:02:24.992Z,6.40
2018-01-03T09:04:54.908Z,6.30
2018-01-03T09:07:28.593Z,6.40
2018-01-03T09:09:57.594Z,6.40
2018-01-03T09:12:26.554Z,6.20
2018-01-03T09:14:56.465Z,5.90
2018-01-03T09:17:26.257Z,5.70
2018-01-03T09:19:56.190Z,5.40
2018-01-03T09:22:26.283Z,5.10
2018-01-03T09:24:55.413Z,5.00
2018-01-03T09:27:25.391Z,4.80
2018-01-03T09:29:54.676Z,4.70
2018-01-03T09:32:23.826Z,4.70
2018-01-03T09:34:53.732Z,4.60
2018-01-03T09:37:22.847Z,4.60
2018-01-03T09:39:51.850Z,4.80
2018-01-03T09:42:20.857Z,4.80
2018-01-03T09:44:49.863Z,4.90
2018-01-03T09:47:19.249Z,5.00
2018-01-03T09:49:48.301Z,5.00
2018-01-03T09:52:20.415Z,5.10
2018-01-03T09:54:49.421Z,5.10
2018-01-03T09:57:18.405Z,5.20
2018-01-03T10:00:50.244Z,5.10
2018-01-03T10:03:19.360Z,5.20
2018-01-03T10:05:48.434Z,5.20
2018-01-03T10:08:17.545Z,5.10
2018-01-03T10:10:46.642Z,5.10
2018-01-03T10:13:15.644Z,5.10
2018-01-03T10:15:44.675Z,5.10
2018-01-03T10:18:13.726Z,5.10
2018-01-03T10:20:43.515Z,5.10
2018-01-03T10:23:13.371Z,5.10
2018-01-03T10:25:42.334Z,5.10
2018-01-03T10:28:12.882Z,5.20
2018-01-03T10:30:42.018Z,5.20
2018-01-03T10:33:11.179Z,5.20
2018-01-03T10:35:40.161Z,5.20
2018-01-03T10:38:10.044Z,5.20
2018-01-03T10:40:39.184Z,5.20
2018-01-03T10:43:08.369Z,5.30
2018-01-03T10:45:37.590Z,5.20
2018-01-03T10:48:07.361Z,5.40
2018-01-03T10:50:37.393Z,5.40
2018-01-03T10:53:06.883Z,5.60
2018-01-03T10:55:36.214Z,5.60
2018-01-03T10:58:06.052Z,5.70
2018-01-03T11:00:35.970Z,5.70
2018-01-03T11:03:05.911Z,5.60
2018-01-03T11:05:35.779Z,5.60
2018-01-03T11:08:04.873Z,5.50
2018-01-03T11:11:53.234Z,5.60
2018-01-03T11:14:23.068Z,5.50
2018-01-03T11:16:52.188Z,5.50
2018-01-03T11:19:21.362Z,5.60
2018-01-03T11:21:50.398Z,5.70
2018-01-03T11:24:19.566Z,5.90
2018-01-03T11:26:49.484Z,6.80
2018-01-03T11:29:18.565Z,6.70
2018-01-03T11:31:47.595Z,6.80
2018-01-03T11:34:16.713Z,6.90
2018-01-03T11:36:47.624Z,6.60
2018-01-03T11:39:16.647Z,6.60
2018-01-03T11:41:45.736Z,6.40
2018-01-03T11:44:14.861Z,6.40
2018-01-03T11:46:44.742Z,6.20
2018-01-03T11:49:13.808Z,6.10
2018-01-03T11:51:42.881Z,6.00
2018-01-03T11:54:13.064Z,6.60
2018-01-03T11:56:42.255Z,6.50
2018-01-03T11:59:09.879Z,6.50
2018-01-03T12:01:39.174Z,6.30
2018-01-03T12:04:08.265Z,6.20
2018-01-03T12:06:37.504Z,6.10
2018-01-03T12:09:06.649Z,6.20
2018-01-03T12:11:35.683Z,6.10
2018-01-03T12:14:04.698Z,6.10
2018-01-03T12:16:33.753Z,6.10
2018-01-03T12:19:02.831Z,6.20
2018-01-03T12:21:31.861Z,6.20
2018-01-03T12:24:01.223Z,6.10
2018-01-03T12:26:30.216Z,6.00
2018-01-03T12:28:59.607Z,6.00
2018-01-03T12:31:29.424Z,6.00
2018-01-03T12:33:58.411Z,6.00
2018-01-03T12:36:27.468Z,5.90
2018-01-03T12:38:57.772Z,5.90
2018-01-03T12:41:27.111Z,5.90
2018-01-03T12:43:57.006Z,5.90
2018-01-03T12:46:26.099Z,5.80
2018-01-03T12:48:55.740Z,5.80
2018-01-03T12:51:25.658Z,5.80
2018-01-03T12:53:55.506Z,5.70
2018-01-03T12:56:24.832Z,5.70
2018-01-03T12:58:53.904Z,5.70
2018-01-03T13:01:22.995Z,5.70
2018-01-03T13:03:52.746Z,5.50
2018-01-03T13:06:21.766Z,5.40
2018-01-03T13:08:50.850Z,5.40
2018-01-03T13:11:23.351Z,5.30
2018-01-03T13:13:52.381Z,5.20
2018-01-03T13:16:22.140Z,5.10
2018-01-03T13:18:51.931Z,5.10
2018-01-03T13:21:21.741Z,5.10
2018-01-03T13:23:50.762Z,5.00
2018-01-03T13:26:20.541Z,5.00
2018-01-03T13:28:49.681Z,4.90
2018-01-03T13:31:18.864Z,4.90
2018-01-03T13:33:47.977Z,4.90
2018-01-03T13:36:17.023Z,4.90
2018-01-03T13:38:46.902Z,4.90
2018-01-03T13:41:26.587Z,4.80
2018-01-03T13:43:55.633Z,4.80
2018-01-03T13:46:25.452Z,4.80
2018-01-03T13:48:55.379Z,4.80
2018-01-03T13:51:25.242Z,4.80
2018-01-03T13:53:55.164Z,4.80
2018-01-03T13:56:24.940Z,4.80
2018-01-03T13:58:54.151Z,4.80
2018-01-03T14:01:24.264Z,4.80
2018-01-03T14:03:53.373Z,4.70
2018-01-03T14:06:22.365Z,4.80
2018-01-03T14:08:52.176Z,4.70
2018-01-03T14:11:22.913Z,4.80
2018-01-03T14:13:52.836Z,4.80
2018-01-03T14:16:22.099Z,4.70
2018-01-03T14:18:51.441Z,4.70
2018-01-03T14:21:20.619Z,4.70
2018-01-03T14:23:50.441Z,4.70
2018-01-03T14:26:20.542Z,4.70
2018-01-03T14:28:49.744Z,4.70
2018-01-03T14:31:19.260Z,4.70
2018-01-03T14:33:49.374Z,4.70
2018-01-03T14:36:21.754Z,4.60
2018-01-03T14:38:50.785Z,4.70
2018-01-03T14:41:19.983Z,4.70
2018-01-03T14:43:49.429Z,4.70
2018-01-03T14:46:18.624Z,4.60
2018-01-03T14:48:48.843Z,4.70
2018-01-03T14:51:18.808Z,4.70
2018-01-03T14:53:47.948Z,4.70
2018-01-03T14:56:17.079Z,4.80
2018-01-03T14:58:46.290Z,4.90
2018-01-03T15:01:19.279Z,4.90
2018-01-03T15:03:48.539Z,4.90
2018-01-03T15:06:18.661Z,4.90
2018-01-03T15:08:48.599Z,4.90
2018-01-03T15:11:18.838Z,4.90
2018-01-03T15:13:48.388Z,4.90
2018-01-03T15:16:17.541Z,5.00
2018-01-03T15:18:46.596Z,4.90
2018-01-03T15:21:16.433Z,5.00
2018-01-03T15:23:46.078Z,5.00
2018-01-03T15:26:15.212Z,5.10
2018-01-03T15:28:45.178Z,5.20
2018-01-03T15:31:14.358Z,5.10
2018-01-03T15:33:43.855Z,5.20
2018-01-03T15:36:13.881Z,5.30
2018-01-03T15:38:42.928Z,5.40
2018-01-03T15:41:13.043Z,5.40
2018-01-03T15:43:42.765Z,5.30
2018-01-03T15:46:11.802Z,5.50
2018-01-03T15:48:40.962Z,5.50
2018-01-03T15:51:10.983Z,5.70
2018-01-03T15:53:42.837Z,5.70
2018-01-03T15:56:17.106Z,5.70
2018-01-03T15:58:46.185Z,5.70
2018-01-03T16:01:20.456Z,5.70
2018-01-03T16:03:49.760Z,5.70
2018-01-03T16:06:18.944Z,5.80
2018-01-03T16:08:47.981Z,5.80
2018-01-03T16:11:17.850Z,5.80
2018-01-03T16:13:47.187Z,5.80
2018-01-03T16:16:22.902Z,5.80
2018-01-03T16:18:52.706Z,5.80
2018-01-03T16:21:23.485Z,5.80
2018-01-03T16:23:52.532Z,5.70
2018-01-03T16:26:21.576Z,5.80
2018-01-03T16:28:50.840Z,5.80
2018-01-03T16:31:20.322Z,5.70
2018-01-03T16:33:50.996Z,5.70
2018-01-03T16:36:20.992Z,5.70
2018-01-03T16:38:50.038Z,5.60
2018-01-03T16:41:26.180Z,5.50
2018-01-03T16:43:55.587Z,5.50
2018-01-03T16:46:24.754Z,5.40
2018-01-03T16:48:54.679Z,5.30
2018-01-03T16:51:27.873Z,5.20
2018-01-03T16:55:00.451Z,5.20
2018-01-03T16:57:33.256Z,5.10
2018-01-03T17:00:03.965Z,5.10
2018-01-03T17:02:33.826Z,5.10
2018-01-03T17:05:02.898Z,5.10
2018-01-03T17:07:32.036Z,5.10
2018-01-03T17:10:01.152Z,5.10
2018-01-03T17:12:30.946Z,5.20
2018-01-03T17:15:00.053Z,5.10
2018-01-03T17:17:29.504Z,5.20
2018-01-03T17:19:59.396Z,5.10
2018-01-03T17:22:29.505Z,5.10
2018-01-03T17:24:59.397Z,5.10
2018-01-03T17:27:29.446Z,5.00
2018-01-03T17:32:43.134Z,5.10
2018-01-03T17:35:12.286Z,5.10
2018-01-03T17:37:41.504Z,5.10
2018-01-03T17:40:11.284Z,5.20
2018-01-03T17:42:40.365Z,5.20
2018-01-03T17:45:10.213Z,5.30
2018-01-03T17:47:40.105Z,5.30
2018-01-03T17:50:09.128Z,5.30
2018-01-03T17:52:39.040Z,5.40
2018-01-03T17:55:08.820Z,5.40
2018-01-03T17:57:37.835Z,5.30
2018-01-03T18:00:07.767Z,5.50
2018-01-03T18:02:36.807Z,5.50
2018-01-03T18:05:06.248Z,5.60
2018-01-03T18:07:37.042Z,5.50
2018-01-03T18:10:06.433Z,5.50
2018-01-03T18:12:35.450Z,5.50
2018-01-03T18:15:04.989Z,5.60
2018-01-03T18:17:35.238Z,5.60
2018-01-03T18:20:04.544Z,5.60
2018-01-03T18:22:33.872Z,5.70
2018-01-03T18:25:04.944Z,5.70
2018-01-03T18:27:34.789Z,5.60
2018-01-03T18:30:03.969Z,5.60
2018-01-03T18:32:33.692Z,5.60
2018-01-03T18:35:02.707Z,5.60
2018-01-03T18:37:31.757Z,5.60
2018-01-03T18:40:01.648Z,5.60
2018-01-03T18:42:30.913Z,5.60
2018-01-03T18:45:00.842Z,5.60
2018-01-03T18:47:30.232Z,5.50
2018-01-03T18:49:59.477Z,5.60
2018-01-03T18:52:30.112Z,5.70
2018-01-03T18:55:05.343Z,5.80
2018-01-03T18:57:34.849Z,5.70
2018-01-03T19:00:04.669Z,5.70
2018-01-03T19:02:34.704Z,5.70
2018-01-03T19:05:04.025Z,5.70
2018-01-03T19:07:33.191Z,5.70
2018-01-03T19:10:03.015Z,5.70
2018-01-03T19:12:33.288Z,5.80
2018-01-03T19:15:02.435Z,5.70
2018-01-03T19:17:32.280Z,5.80
2018-01-03T19:20:01.325Z,5.70
2018-01-03T19:22:31.936Z,5.80
2018-01-03T19:25:00.982Z,5.80
2018-01-03T19:27:30.015Z,5.90
2018-01-03T19:29:59.085Z,5.90
2018-01-03T19:32:28.175Z,5.90
2018-01-03T19:34:57.252Z,5.80
2018-01-03T19:37:26.347Z,5.80
2018-01-03T19:39:55.385Z,5.70
2018-01-03T19:42:24.384Z,5.60
2018-01-03T19:44:53.441Z,5.60
2018-01-03T19:47:22.462Z,5.60
2018-01-03T19:49:51.646Z,5.60
2018-01-03T19:52:20.777Z,5.60
2018-01-03T19:54:49.802Z,5.50
2018-01-03T19:57:22.045Z,5.40
2018-01-03T19:59:51.900Z,5.40
2018-01-03T20:02:21.130Z,5.30
2018-01-03T20:04:50.334Z,5.30
2018-01-03T20:07:19.691Z,5.30
2018-01-03T20:09:48.826Z,5.20
2018-01-03T20:12:18.155Z,5.20
2018-01-03T20:14:48.127Z,5.20
2018-01-03T20:17:17.258Z,5.10
2018-01-03T20:19:46.489Z,5.20
2018-01-03T20:22:46.969Z,5.30
2018-01-03T20:25:16.096Z,5.30
2018-01-03T20:27:46.001Z,5.30
2018-01-03T20:30:15.320Z,5.30
2018-01-03T20:32:45.206Z,5.40
2018-01-03T20:35:14.236Z,5.30
2018-01-03T20:37:43.369Z,5.40
2018-01-03T20:40:12.473Z,5.40
2018-01-03T20:42:42.342Z,5.40
2018-01-03T20:45:11.694Z,5.30
2018-01-03T20:47:40.768Z,5.40
2018-01-03T20:50:10.893Z,5.40
2018-01-03T20:52:40.992Z,5.40
2018-01-03T20:55:11.276Z,5.40
2018-01-03T20:57:40.963Z,5.40
2018-01-03T21:00:10.095Z,5.40
2018-01-03T21:02:39.259Z,5.40
2018-01-03T21:05:08.347Z,5.50
2018-01-03T21:07:37.525Z,5.50
2018-01-03T21:10:06.573Z,5.60
2018-01-03T21:12:35.739Z,5.60
2018-01-03T21:15:04.978Z,5.60
2018-01-03T21:17:35.032Z,5.70
2018-01-03T21:20:04.174Z,5.70
2018-01-03T21:22:33.332Z,5.70
2018-01-03T21:25:03.046Z,5.80
2018-01-03T21:27:32.063Z,5.80
2018-01-03T21:30:01.199Z,5.80
2018-01-03T21:32:30.238Z,5.80
2018-01-03T21:34:59.436Z,5.80
2018-01-03T21:37:28.440Z,5.80
2018-01-03T21:39:58.659Z,5.80
2018-01-03T21:42:27.696Z,5.80
2018-01-03T21:44:57.064Z,5.90
2018-01-03T21:47:26.058Z,5.90
2018-01-03T21:49:55.128Z,5.90
2018-01-03T21:52:24.203Z,5.90
2018-01-03T21:54:53.267Z,5.90
2018-01-03T21:57:27.477Z,5.90
2018-01-03T21:59:57.327Z,6.00
2018-01-03T22:02:26.430Z,5.90
2018-01-03T22:04:55.422Z,6.00
2018-01-03T22:07:24.410Z,6.00
2018-01-03T22:09:54.224Z,5.80
2018-01-03T22:12:23.303Z,5.80
2018-01-03T22:14:52.352Z,5.90
2018-01-03T22:17:21.329Z,5.90
2018-01-03T22:19:50.359Z,5.90
2018-01-03T22:22:20.115Z,5.80
2018-01-03T22:24:49.145Z,5.80
2018-01-03T22:27:18.133Z,5.90
2018-01-03T22:29:47.114Z,5.90
2018-01-03T22:32:16.187Z,5.90
2018-01-03T22:34:46.022Z,5.90
2018-01-03T22:37:15.003Z,5.90
2018-01-03T22:39:43.997Z,5.90
2018-01-03T22:42:16.475Z,5.90
2018-01-03T22:44:45.408Z,5.90
2018-01-03T22:47:15.120Z,5.90
2018-01-03T22:49:44.926Z,5.90
2018-01-03T22:52:14.701Z,5.80
2018-01-03T22:54:43.676Z,5.80
2018-01-03T22:57:12.663Z,5.90
2018-01-03T22:59:41.665Z,5.90
2018-01-03T23:02:10.739Z,5.80
2018-01-03T23:04:39.749Z,5.80
2018-01-03T23:07:08.769Z,5.90
2018-01-03T23:09:37.846Z,5.80
2018-01-03T23:12:06.820Z,5.90
2018-01-03T23:14:35.871Z,6.00
2018-01-03T23:17:05.608Z,5.90
2018-01-03T23:19:34.619Z,5.80
2018-01-03T23:22:03.664Z,5.90
2018-01-03T23:24:33.491Z,5.80
2018-01-03T23:27:03.554Z,5.90
2018-01-03T23:29:32.564Z,5.80
2018-01-03T23:32:01.569Z,5.80
2018-01-03T23:34:30.599Z,5.80
2018-01-03T23:36:59.854Z,5.70
2018-01-03T23:39:28.865Z,5.60
2018-01-03T23:41:57.947Z,5.60
2018-01-03T23:44:26.934Z,5.50
2018-01-03T23:46:55.983Z,5.50
2018-01-03T23:49:25.026Z,5.40
2018-01-03T23:51:54.140Z,5.40
2018-01-03T23:54:24.226Z,5.20
2018-01-03T23:56:53.284Z,5.20
2018-01-03T23:59:22.368Z,5.10
